Time;durP1;ratioP1;P1;durP2;ratioP2;P2;SDS_P1;SDS_P2;PMS_P1;PMS_P2;Temp;Humidity;BMP_temperature;BMP_pressure;BME280_temperature;BME280_humidity;BME280_pressure;Samples;Min_cycle;Max_cycle;Signal;HPM_P1;HPM_P2
2023/06/25 00:01:19;;;;;;;7.72;5.93;;;;;;;;;;5043577;28;20202;-63
2023/06/25 00:03:47;;;;;;;6.47;5.88;;;;;;;;;;5047639;28;20234;-63
2023/06/25 00:06:14;;;;;;;6.38;5.78;;;;;;;;;;5048646;28;20368;-63
2023/06/25 00:08:41;;;;;;;6.95;5.63;;;;;;;;;;5031095;28;20210;-63
2023/06/25 00:11:09;;;;;;;8.70;6.10;;;;;;;;;;5033779;28;20218;-63
2023/06/25 00:13:36;;;;;;;6.88;6.22;;;;;;;;;;5025220;28;20268;-63
2023/06/25 00:16:03;;;;;;;6.72;6.03;;;;;;;;;;5031368;28;20348;-63
2023/06/25 00:18:33;;;;;;;6.18;5.57;;;;;;;;;;5049551;28;20213;-64
2023/06/25 00:21:01;;;;;;;6.72;6.07;;;;;;;;;;5049889;28;20278;-62
2023/06/25 00:23:28;;;;;;;7.20;6.50;;;;;;;;;;5045430;28;20218;-64
2023/06/25 00:25:55;;;;;;;6.55;5.85;;;;;;;;;;5051039;28;20206;-63
2023/06/25 00:28:23;;;;;;;6.57;5.97;;;;;;;;;;5048287;28;20623;-62
2023/06/25 00:30:50;;;;;;;5.95;5.32;;;;;;;;;;5033260;28;20213;-62
2023/06/25 00:33:17;;;;;;;6.82;6.13;;;;;;;;;;5050845;28;20313;-63
2023/06/25 00:35:50;;;;;;;6.70;5.22;;;;;;;;;;5050498;28;20228;-63
2023/06/25 00:38:18;;;;;;;5.63;5.13;;;;;;;;;;5050165;28;20595;-64
2023/06/25 00:40:46;;;;;;;5.43;4.93;;;;;;;;;;5049417;28;20583;-63
2023/06/25 00:43:16;;;;;;;5.53;5.03;;;;;;;;;;5037760;28;20230;-62
2023/06/25 00:45:44;;;;;;;5.82;5.18;;;;;;;;;;5024410;28;20771;-62
2023/06/25 00:48:12;;;;;;;6.40;5.80;;;;;;;;;;5036789;28;20279;-64
2023/06/25 00:50:39;;;;;;;5.93;5.30;;;;;;;;;;5048458;28;20202;-62
2023/06/25 00:53:08;;;;;;;5.97;5.47;;;;;;;;;;5035085;28;20256;-64
2023/06/25 00:55:36;;;;;;;6.30;5.70;;;;;;;;;;5048513;28;20217;-63
2023/06/25 00:58:05;;;;;;;6.73;5.77;;;;;;;;;;5043362;28;20207;-61
2023/06/25 01:00:34;;;;;;;6.30;5.70;;;;;;;;;;5046201;28;20203;-63
2023/06/25 01:03:05;;;;;;;6.20;5.60;;;;;;;;;;5012526;28;20226;-62
2023/06/25 01:05:39;;;;;;;6.80;6.20;;;;;;;;;;5042783;28;20293;-62
2023/06/25 01:08:11;;;;;;;6.77;5.90;;;;;;;;;;5048526;28;20202;-62
2023/06/25 01:10:38;;;;;;;6.67;5.80;;;;;;;;;;5024358;28;20259;-62
2023/06/25 01:13:06;;;;;;;6.73;6.13;;;;;;;;;;5032568;28;20235;-62
2023/06/25 01:15:33;;;;;;;6.80;6.20;;;;;;;;;;5043464;28;20228;-63
2023/06/25 01:18:01;;;;;;;7.50;5.60;;;;;;;;;;5043006;28;20245;-62
2023/06/25 01:20:29;;;;;;;6.50;5.90;;;;;;;;;;5046711;28;20252;-62
2023/06/25 01:22:56;;;;;;;6.40;5.80;;;;;;;;;;5044099;28;20567;-63
2023/06/25 01:25:24;;;;;;;6.93;6.23;;;;;;;;;;5051258;28;20234;-63
2023/06/25 01:27:51;;;;;;;6.63;5.97;;;;;;;;;;5033141;28;20202;-64
2023/06/25 01:30:20;;;;;;;6.10;5.60;;;;;;;;;;5041601;28;20210;-62
2023/06/25 01:32:47;;;;;;;6.27;5.70;;;;;;;;;;5030991;28;20218;-62
2023/06/25 01:35:15;;;;;;;7.37;5.80;;;;;;;;;;5048642;28;20248;-63
2023/06/25 01:37:43;;;;;;;6.30;5.80;;;;;;;;;;5046871;28;20259;-62
2023/06/25 01:40:10;;;;;;;6.23;5.70;;;;;;;;;;5030663;28;20269;-63
2023/06/25 01:42:38;;;;;;;6.97;6.37;;;;;;;;;;5046686;28;20226;-62
2023/06/25 01:45:05;;;;;;;6.10;5.50;;;;;;;;;;5050733;28;20607;-62
2023/06/25 01:47:32;;;;;;;6.70;6.10;;;;;;;;;;5048580;28;20202;-63
2023/06/25 01:50:00;;;;;;;7.73;6.00;;;;;;;;;;5048907;28;20205;-62
2023/06/25 01:52:27;;;;;;;6.70;6.10;;;;;;;;;;5048223;28;20675;-63
2023/06/25 01:54:55;;;;;;;6.53;5.90;;;;;;;;;;5037182;28;20202;-62
2023/06/25 01:57:22;;;;;;;6.90;6.20;;;;;;;;;;5030640;28;20722;-62
2023/06/25 01:59:49;;;;;;;6.27;5.67;;;;;;;;;;5042907;28;20623;-61
2023/06/25 02:02:17;;;;;;;7.33;6.63;;;;;;;;;;5047639;28;20237;-63
2023/06/25 02:04:44;;;;;;;9.80;6.80;;;;;;;;;;5041219;28;20202;-64
2023/06/25 02:07:11;;;;;;;6.23;5.70;;;;;;;;;;5049496;28;20206;-61
2023/06/25 02:09:39;;;;;;;6.73;6.03;;;;;;;;;;5043716;28;20203;-63
2023/06/25 02:12:06;;;;;;;6.37;5.77;;;;;;;;;;5048741;28;20212;-63
2023/06/25 02:14:34;;;;;;;6.17;5.67;;;;;;;;;;5048218;28;20279;-63
2023/06/25 02:17:01;;;;;;;8.10;6.37;;;;;;;;;;5039640;28;20222;-62
2023/06/25 02:19:28;;;;;;;7.10;6.40;;;;;;;;;;5055136;28;20559;-61
2023/06/25 02:21:55;;;;;;;7.93;6.07;;;;;;;;;;5046425;28;20643;-63
2023/06/25 02:24:23;;;;;;;7.40;6.00;;;;;;;;;;5052708;28;20280;-62
2023/06/25 02:26:50;;;;;;;6.97;6.10;;;;;;;;;;5046328;28;20202;-62
2023/06/25 02:29:17;;;;;;;6.77;6.17;;;;;;;;;;5035445;28;20217;-63
2023/06/25 02:31:45;;;;;;;6.90;6.20;;;;;;;;;;5031152;28;20255;-61
2023/06/25 02:34:12;;;;;;;6.73;6.00;;;;;;;;;;5046929;28;20225;-61
2023/06/25 02:36:39;;;;;;;8.07;6.80;;;;;;;;;;5046300;28;20615;-62
2023/06/25 02:39:07;;;;;;;8.37;6.20;;;;;;;;;;5053446;28;20198;-62
2023/06/25 02:41:34;;;;;;;6.47;5.90;;;;;;;;;;5047513;28;20195;-62
2023/06/25 02:44:02;;;;;;;7.23;6.50;;;;;;;;;;5034955;28;20611;-62
2023/06/25 02:46:29;;;;;;;7.57;6.80;;;;;;;;;;5030056;28;20206;-64
2023/06/25 02:48:57;;;;;;;7.27;6.03;;;;;;;;;;5033991;28;20238;-65
2023/06/25 02:51:24;;;;;;;6.90;6.30;;;;;;;;;;5049695;28;20656;-64
2023/06/25 02:53:53;;;;;;;6.80;6.10;;;;;;;;;;5052835;28;20229;-62
2023/06/25 02:56:20;;;;;;;7.47;6.77;;;;;;;;;;5050110;28;20226;-61
2023/06/25 02:58:48;;;;;;;7.00;6.30;;;;;;;;;;5033079;28;20446;-63
2023/06/25 03:01:15;;;;;;;7.60;6.37;;;;;;;;;;5032864;28;20206;-61
2023/06/25 03:03:42;;;;;;;7.13;6.43;;;;;;;;;;5014017;28;20778;-64
2023/06/25 03:06:10;;;;;;;9.23;7.57;;;;;;;;;;5046071;28;20212;-62
2023/06/25 03:08:37;;;;;;;13.77;10.37;;;;;;;;;;5031768;28;20202;-62
2023/06/25 03:11:04;;;;;;;24.23;18.80;;;;;;;;;;5033306;28;20225;-66
2023/06/25 03:13:32;;;;;;;13.63;10.13;;;;;;;;;;5051790;28;20708;-60
2023/06/25 03:15:59;;;;;;;8.57;7.43;;;;;;;;;;5027823;28;21037;-63
2023/06/25 03:18:26;;;;;;;7.70;6.90;;;;;;;;;;5031235;28;20700;-60
2023/06/25 03:20:54;;;;;;;10.20;6.60;;;;;;;;;;5030054;28;20206;-62
2023/06/25 03:23:21;;;;;;;7.20;6.50;;;;;;;;;;5048093;28;20292;-63
2023/06/25 03:25:49;;;;;;;7.80;6.80;;;;;;;;;;5048828;28;20310;-65
2023/06/25 03:28:17;;;;;;;8.83;6.70;;;;;;;;;;5031415;28;20550;-64
2023/06/25 03:30:47;;;;;;;7.67;6.20;;;;;;;;;;5033177;28;20206;-63
2023/06/25 03:33:15;;;;;;;6.93;5.93;;;;;;;;;;5047167;28;20230;-64
2023/06/25 03:35:42;;;;;;;6.93;6.17;;;;;;;;;;5052266;28;20210;-61
2023/06/25 03:38:10;;;;;;;6.60;6.00;;;;;;;;;;5039295;28;20267;-66
2023/06/25 03:40:39;;;;;;;8.60;7.70;;;;;;;;;;5027542;28;20198;-63
2023/06/25 03:43:06;;;;;;;9.43;6.97;;;;;;;;;;5048708;28;20226;-64
2023/06/25 03:45:33;;;;;;;7.03;6.30;;;;;;;;;;5031143;28;20982;-63
2023/06/25 03:48:01;;;;;;;12.90;9.60;;;;;;;;;;5027341;28;20675;-63
2023/06/25 03:50:29;;;;;;;7.97;7.17;;;;;;;;;;5049407;28;20259;-67
2023/06/25 03:52:56;;;;;;;13.37;10.30;;;;;;;;;;5045012;28;20280;-62
2023/06/25 03:55:23;;;;;;;8.30;7.00;;;;;;;;;;5032544;28;20205;-63
2023/06/25 03:57:50;;;;;;;8.30;6.53;;;;;;;;;;5026642;28;20712;-65
2023/06/25 04:00:18;;;;;;;8.30;6.80;;;;;;;;;;5025713;28;20206;-64
2023/06/25 04:02:45;;;;;;;10.70;8.40;;;;;;;;;;5044892;28;20269;-65
2023/06/25 04:05:13;;;;;;;8.30;7.50;;;;;;;;;;5028200;28;20302;-61
2023/06/25 04:07:40;;;;;;;8.17;7.33;;;;;;;;;;5043040;28;20206;-64
2023/06/25 04:10:08;;;;;;;7.27;6.37;;;;;;;;;;5042180;28;20213;-63
2023/06/25 04:12:35;;;;;;;6.87;6.27;;;;;;;;;;5041250;28;20226;-62
2023/06/25 04:15:03;;;;;;;7.20;6.50;;;;;;;;;;5047532;28;20209;-62
2023/06/25 04:17:30;;;;;;;7.03;6.33;;;;;;;;;;5040715;28;20236;-65
2023/06/25 04:19:57;;;;;;;6.67;5.90;;;;;;;;;;5047111;28;20607;-63
2023/06/25 04:22:25;;;;;;;6.47;5.87;;;;;;;;;;5033624;28;20614;-65
2023/06/25 04:24:52;;;;;;;7.40;6.70;;;;;;;;;;5037321;28;20210;-60
2023/06/25 04:27:20;;;;;;;7.77;6.60;;;;;;;;;;5021226;28;21182;-63
2023/06/25 04:29:50;;;;;;;6.93;6.33;;;;;;;;;;5045310;28;20213;-63
2023/06/25 04:32:19;;;;;;;7.53;6.50;;;;;;;;;;5041038;28;20562;-63
2023/06/25 04:34:46;;;;;;;7.80;6.93;;;;;;;;;;5049576;28;20293;-63
2023/06/25 04:37:13;;;;;;;7.07;6.30;;;;;;;;;;5036269;28;20305;-63
2023/06/25 04:39:41;;;;;;;7.73;6.63;;;;;;;;;;5036270;28;20222;-63
2023/06/25 04:42:08;;;;;;;8.63;6.43;;;;;;;;;;5043218;28;20861;-63
2023/06/25 04:44:35;;;;;;;8.90;7.17;;;;;;;;;;5041873;28;20222;-63
2023/06/25 04:47:03;;;;;;;8.27;6.40;;;;;;;;;;5048893;28;20221;-63
2023/06/25 04:49:31;;;;;;;7.50;6.27;;;;;;;;;;5044370;28;20297;-63
2023/06/25 04:51:58;;;;;;;6.17;5.67;;;;;;;;;;5047532;28;20229;-64
2023/06/25 04:54:25;;;;;;;6.90;6.10;;;;;;;;;;5043015;28;20226;-63
2023/06/25 04:56:53;;;;;;;8.53;6.13;;;;;;;;;;5044127;28;20228;-63
2023/06/25 04:59:20;;;;;;;8.10;6.60;;;;;;;;;;5043791;28;20749;-63
2023/06/25 05:01:47;;;;;;;8.67;7.77;;;;;;;;;;5047509;28;20217;-63
2023/06/25 05:04:15;;;;;;;7.37;6.60;;;;;;;;;;5021660;28;20813;-62
2023/06/25 05:06:42;;;;;;;8.30;6.60;;;;;;;;;;5051282;28;20206;-63
2023/06/25 05:09:10;;;;;;;7.20;6.50;;;;;;;;;;5046423;28;20747;-63
2023/06/25 05:11:37;;;;;;;6.70;6.00;;;;;;;;;;5049633;28;20706;-63
2023/06/25 05:14:04;;;;;;;6.70;6.10;;;;;;;;;;5052670;28;20230;-64
2023/06/25 05:16:32;;;;;;;7.33;6.00;;;;;;;;;;5051560;28;20226;-63
2023/06/25 05:18:59;;;;;;;7.05;6.45;;;;;;;;;;5046993;28;20198;-63
2023/06/25 05:21:27;;;;;;;6.43;5.83;;;;;;;;;;5040716;28;20213;-63
2023/06/25 05:23:58;;;;;;;6.05;5.28;;;;;;;;;;5027666;28;20214;-63
2023/06/25 05:26:26;;;;;;;5.97;5.40;;;;;;;;;;5046943;28;20275;-64
2023/06/25 05:28:53;;;;;;;5.70;5.20;;;;;;;;;;5049063;28;20202;-63
2023/06/25 05:31:21;;;;;;;5.38;4.82;;;;;;;;;;5049741;28;20214;-63
2023/06/25 05:33:48;;;;;;;6.68;5.10;;;;;;;;;;5048530;28;20229;-67
2023/06/25 05:36:16;;;;;;;4.90;4.50;;;;;;;;;;5041188;28;20205;-62
2023/06/25 05:38:43;;;;;;;5.50;4.22;;;;;;;;;;5018577;28;20634;-64
2023/06/25 05:41:11;;;;;;;4.65;4.25;;;;;;;;;;5041670;28;20203;-61
2023/06/25 05:43:38;;;;;;;5.55;4.75;;;;;;;;;;5025192;28;20249;-67
2023/06/25 05:46:11;;;;;;;4.40;4.10;;;;;;;;;;5041475;28;20214;-62
2023/06/25 05:48:38;;;;;;;4.75;4.35;;;;;;;;;;5043631;28;20202;-63
2023/06/25 05:51:06;;;;;;;4.80;4.40;;;;;;;;;;5029448;28;20275;-65
2023/06/25 05:53:42;;;;;;;4.80;4.40;;;;;;;;;;5024697;28;20755;-64
2023/06/25 05:56:09;;;;;;;4.40;4.10;;;;;;;;;;5039653;28;20632;-63
2023/06/25 05:58:37;;;;;;;5.53;4.60;;;;;;;;;;5040721;28;20293;-62
2023/06/25 06:01:04;;;;;;;5.05;4.65;;;;;;;;;;5025966;28;20239;-63
2023/06/25 06:03:32;;;;;;;5.75;4.82;;;;;;;;;;5040617;28;20240;-63
2023/06/25 06:06:00;;;;;;;4.85;4.45;;;;;;;;;;5043109;28;20640;-62
2023/06/25 06:08:27;;;;;;;4.40;4.05;;;;;;;;;;5013414;28;20741;-63
2023/06/25 06:10:54;;;;;;;4.68;4.20;;;;;;;;;;5045262;28;20672;-64
2023/06/25 06:13:22;;;;;;;4.20;3.90;;;;;;;;;;5029624;28;20225;-63
2023/06/25 06:15:49;;;;;;;8.07;4.28;;;;;;;;;;5030001;28;20210;-64
2023/06/25 06:18:16;;;;;;;4.25;3.85;;;;;;;;;;5035635;28;20221;-67
2023/06/25 06:20:44;;;;;;;4.05;3.75;;;;;;;;;;5025685;28;20214;-64
2023/06/25 06:23:11;;;;;;;4.80;4.40;;;;;;;;;;5039319;28;20324;-62
2023/06/25 06:25:39;;;;;;;5.07;4.57;;;;;;;;;;5024057;28;20233;-64
2023/06/25 06:28:06;;;;;;;4.85;4.43;;;;;;;;;;5044051;28;20206;-63
2023/06/25 06:30:33;;;;;;;5.13;4.63;;;;;;;;;;5041168;28;20307;-63
2023/06/25 06:33:01;;;;;;;5.30;4.43;;;;;;;;;;5047652;28;20240;-63
2023/06/25 06:35:28;;;;;;;5.07;4.50;;;;;;;;;;5041992;28;20294;-64
2023/06/25 06:37:55;;;;;;;5.05;4.60;;;;;;;;;;5038752;28;20226;-63
2023/06/25 06:40:23;;;;;;;5.35;4.38;;;;;;;;;;5034849;28;20228;-62
2023/06/25 06:42:50;;;;;;;4.95;4.45;;;;;;;;;;5037693;28;20231;-62
2023/06/25 06:45:17;;;;;;;7.63;5.10;;;;;;;;;;5017285;28;20199;-62
2023/06/25 06:47:45;;;;;;;5.65;5.15;;;;;;;;;;5037781;28;20263;-62
2023/06/25 06:50:12;;;;;;;5.10;4.70;;;;;;;;;;5036201;28;20491;-62
2023/06/25 06:52:43;;;;;;;5.38;4.88;;;;;;;;;;5026555;28;20237;-62
2023/06/25 06:55:10;;;;;;;5.63;5.13;;;;;;;;;;5023654;28;20211;-62
2023/06/25 06:57:38;;;;;;;4.88;4.38;;;;;;;;;;5054683;28;20214;-62
2023/06/25 07:00:05;;;;;;;5.65;5.05;;;;;;;;;;5032077;28;20213;-62
2023/06/25 07:02:33;;;;;;;5.35;4.85;;;;;;;;;;5045733;28;20244;-63
2023/06/25 07:05:00;;;;;;;5.43;4.93;;;;;;;;;;5044743;28;20205;-62
2023/06/25 07:07:27;;;;;;;5.78;4.25;;;;;;;;;;5048175;28;20203;-63
2023/06/25 07:09:55;;;;;;;5.18;4.78;;;;;;;;;;5042059;28;20203;-62
2023/06/25 07:12:22;;;;;;;5.35;4.78;;;;;;;;;;5041646;28;20203;-63
2023/06/25 07:14:50;;;;;;;5.47;4.97;;;;;;;;;;5036037;28;20203;-63
2023/06/25 07:17:17;;;;;;;4.85;4.45;;;;;;;;;;5025034;28;20234;-64
2023/06/25 07:19:44;;;;;;;4.90;4.50;;;;;;;;;;5041797;28;20707;-63
2023/06/25 07:22:12;;;;;;;5.45;4.93;;;;;;;;;;5042271;28;20198;-63
2023/06/25 07:24:39;;;;;;;5.50;5.00;;;;;;;;;;5042767;28;20303;-64
2023/06/25 07:27:07;;;;;;;4.60;4.20;;;;;;;;;;5041338;28;20202;-65
2023/06/25 07:29:35;;;;;;;6.50;4.68;;;;;;;;;;5023932;28;20289;-63
2023/06/25 07:32:02;;;;;;;5.00;4.50;;;;;;;;;;5036885;28;20210;-62
2023/06/25 07:34:33;;;;;;;6.38;4.97;;;;;;;;;;5039938;28;20256;-63
2023/06/25 07:37:00;;;;;;;5.20;4.70;;;;;;;;;;5040808;28;20259;-62
2023/06/25 07:39:33;;;;;;;4.63;4.22;;;;;;;;;;5038620;28;20656;-62
2023/06/25 07:42:00;;;;;;;5.43;4.57;;;;;;;;;;5042031;28;20202;-63
2023/06/25 07:44:27;;;;;;;4.30;4.00;;;;;;;;;;5035529;28;20218;-63
2023/06/25 07:46:58;;;;;;;4.82;4.40;;;;;;;;;;5037518;28;20202;-63
2023/06/25 07:49:25;;;;;;;5.03;4.38;;;;;;;;;;5039317;28;20232;-63
2023/06/25 07:51:53;;;;;;;4.50;4.10;;;;;;;;;;5040588;28;20255;-64
2023/06/25 07:54:21;;;;;;;4.90;4.15;;;;;;;;;;5041300;28;20257;-63
2023/06/25 07:56:48;;;;;;;4.55;3.92;;;;;;;;;;5039495;28;20210;-64
2023/06/25 07:59:15;;;;;;;4.90;4.40;;;;;;;;;;5031335;28;20267;-63
2023/06/25 08:01:44;;;;;;;5.28;4.15;;;;;;;;;;5033994;28;20221;-63
2023/06/25 08:04:12;;;;;;;4.60;4.13;;;;;;;;;;5028400;28;20222;-63
2023/06/25 08:06:40;;;;;;;4.43;4.03;;;;;;;;;;5022932;28;20199;-63
2023/06/25 08:09:07;;;;;;;4.22;3.83;;;;;;;;;;5021111;28;20213;-63
2023/06/25 08:11:35;;;;;;;5.50;4.60;;;;;;;;;;5025520;28;20202;-63
2023/06/25 08:14:02;;;;;;;4.07;3.67;;;;;;;;;;5028708;28;20704;-63
2023/06/25 08:16:30;;;;;;;4.40;4.00;;;;;;;;;;5026032;28;20198;-63
2023/06/25 08:18:57;;;;;;;4.38;3.97;;;;;;;;;;5039813;28;20223;-67
2023/06/25 08:21:24;;;;;;;4.40;4.00;;;;;;;;;;5038516;28;20203;-62
2023/06/25 08:23:51;;;;;;;4.10;3.70;;;;;;;;;;5025499;28;20252;-64
2023/06/25 08:26:19;;;;;;;5.68;4.10;;;;;;;;;;5040991;28;20272;-63
2023/06/25 08:28:47;;;;;;;5.55;4.13;;;;;;;;;;5043053;28;20202;-63
2023/06/25 08:31:14;;;;;;;4.85;4.43;;;;;;;;;;5023075;28;20260;-64
2023/06/25 08:33:42;;;;;;;4.28;3.88;;;;;;;;;;5035958;28;20262;-64
2023/06/25 08:36:09;;;;;;;4.55;4.22;;;;;;;;;;5021531;28;20210;-63
2023/06/25 08:38:37;;;;;;;4.60;3.70;;;;;;;;;;5029497;28;20226;-65
2023/06/25 08:41:04;;;;;;;4.63;4.00;;;;;;;;;;5017290;28;20205;-62
2023/06/25 08:43:32;;;;;;;4.30;3.90;;;;;;;;;;5014365;28;20225;-63
2023/06/25 08:46:01;;;;;;;4.30;4.00;;;;;;;;;;5023327;28;20209;-62
2023/06/25 08:48:31;;;;;;;4.97;4.50;;;;;;;;;;5036474;28;20212;-63
2023/06/25 08:51:02;;;;;;;3.95;3.65;;;;;;;;;;5011779;28;20209;-63
2023/06/25 08:53:29;;;;;;;4.20;3.70;;;;;;;;;;5020288;28;20283;-62
2023/06/25 08:55:58;;;;;;;4.43;4.03;;;;;;;;;;5028989;28;20265;-62
2023/06/25 08:58:25;;;;;;;5.55;4.28;;;;;;;;;;5027282;28;20276;-65
2023/06/25 09:00:56;;;;;;;5.22;4.72;;;;;;;;;;5009135;28;20657;-65
2023/06/25 09:03:23;;;;;;;4.63;4.22;;;;;;;;;;5009931;28;20357;-62
2023/06/25 09:05:52;;;;;;;4.50;4.10;;;;;;;;;;5025722;28;20206;-66
2023/06/25 09:08:19;;;;;;;4.20;3.80;;;;;;;;;;5027461;28;20249;-62
2023/06/25 09:10:54;;;;;;;4.75;4.32;;;;;;;;;;5005546;28;20683;-64
2023/06/25 09:13:29;;;;;;;4.25;3.85;;;;;;;;;;5024616;28;20221;-65
2023/06/25 09:16:01;;;;;;;4.07;3.78;;;;;;;;;;5017748;28;20218;-64
2023/06/25 09:18:32;;;;;;;5.28;4.07;;;;;;;;;;5033823;28;20249;-61
2023/06/25 09:21:06;;;;;;;4.65;4.25;;;;;;;;;;5003097;28;20202;-65
2023/06/25 09:23:35;;;;;;;4.32;4.03;;;;;;;;;;5004072;28;20222;-62
2023/06/25 09:26:07;;;;;;;4.38;3.80;;;;;;;;;;5029803;28;20210;-62
2023/06/25 09:28:53;;;;;;;4.68;4.28;;;;;;;;;;5027203;28;20198;-63
2023/06/25 09:31:20;;;;;;;4.63;4.15;;;;;;;;;;5032114;28;20217;-64
2023/06/25 09:33:54;;;;;;;4.72;4.25;;;;;;;;;;5035426;28;20244;-64
2023/06/25 09:36:22;;;;;;;4.30;3.90;;;;;;;;;;5034524;28;20206;-64
2023/06/25 09:39:05;;;;;;;4.57;4.15;;;;;;;;;;5045805;28;20565;-64
2023/06/25 09:41:34;;;;;;;4.47;4.13;;;;;;;;;;5041912;28;20285;-64
2023/06/25 09:44:03;;;;;;;5.53;4.60;;;;;;;;;;5021964;28;20261;-65
2023/06/25 09:46:35;;;;;;;4.63;4.18;;;;;;;;;;5020802;28;20213;-63
2023/06/25 09:49:03;;;;;;;4.60;4.20;;;;;;;;;;5022209;28;20641;-65
2023/06/25 09:51:45;;;;;;;4.72;4.28;;;;;;;;;;5015632;28;20202;-63
2023/06/25 09:54:13;;;;;;;4.40;4.03;;;;;;;;;;5044623;28;20226;-63
2023/06/25 09:56:43;;;;;;;4.82;4.38;;;;;;;;;;5043889;28;20211;-65
2023/06/25 09:59:10;;;;;;;4.72;4.30;;;;;;;;;;5028970;28;20242;-63
2023/06/25 10:01:38;;;;;;;5.53;4.20;;;;;;;;;;5019286;28;20203;-64
2023/06/25 10:04:05;;;;;;;5.00;4.50;;;;;;;;;;5017306;28;20221;-64
2023/06/25 10:06:34;;;;;;;5.65;4.47;;;;;;;;;;5015703;28;20557;-63
2023/06/25 10:09:02;;;;;;;5.13;4.63;;;;;;;;;;5034698;28;20214;-63
2023/06/25 10:11:30;;;;;;;4.57;4.18;;;;;;;;;;5036500;28;20268;-64
2023/06/25 10:14:02;;;;;;;4.18;3.88;;;;;;;;;;5031987;28;20661;-63
2023/06/25 10:16:33;;;;;;;4.97;4.38;;;;;;;;;;5032504;28;20230;-64
2023/06/25 10:19:03;;;;;;;4.40;4.00;;;;;;;;;;5019834;28;20238;-64
2023/06/25 10:21:31;;;;;;;5.95;4.95;;;;;;;;;;5037839;28;20259;-64
2023/06/25 10:24:01;;;;;;;5.00;4.50;;;;;;;;;;5025471;28;20218;-65
2023/06/25 10:26:29;;;;;;;6.90;5.80;;;;;;;;;;5035671;28;20214;-65
2023/06/25 10:29:00;;;;;;;5.97;4.60;;;;;;;;;;5032406;28;20213;-64
2023/06/25 10:31:27;;;;;;;5.00;4.50;;;;;;;;;;5026417;28;20263;-65
2023/06/25 10:34:08;;;;;;;4.45;4.05;;;;;;;;;;5039568;28;20239;-65
2023/06/25 10:36:35;;;;;;;4.55;4.15;;;;;;;;;;5029807;28;20213;-67
2023/06/25 10:39:03;;;;;;;4.80;4.40;;;;;;;;;;5038913;28;20285;-64
2023/06/25 10:41:31;;;;;;;3.72;3.45;;;;;;;;;;5034907;28;20213;-64
2023/06/25 10:43:59;;;;;;;4.40;4.07;;;;;;;;;;5039067;28;20299;-65
2023/06/25 10:46:33;;;;;;;5.65;5.15;;;;;;;;;;5036813;28;20213;-64
2023/06/25 10:49:03;;;;;;;4.10;3.80;;;;;;;;;;5041143;28;20341;-65
2023/06/25 10:51:34;;;;;;;4.68;4.28;;;;;;;;;;5042278;28;20265;-65
2023/06/25 10:54:01;;;;;;;4.78;4.38;;;;;;;;;;5042532;28;20237;-65
2023/06/25 10:56:28;;;;;;;4.35;4.05;;;;;;;;;;5039542;28;20287;-66
2023/06/25 10:58:59;;;;;;;3.92;3.63;;;;;;;;;;5039215;28;20226;-64
2023/06/25 11:01:32;;;;;;;4.68;4.28;;;;;;;;;;5041567;28;20210;-62
2023/06/25 11:04:00;;;;;;;4.50;4.10;;;;;;;;;;5036289;28;20250;-65
2023/06/25 11:06:28;;;;;;;4.43;4.10;;;;;;;;;;5037096;28;20198;-65
2023/06/25 11:08:55;;;;;;;4.90;4.30;;;;;;;;;;5030051;28;20208;-69
2023/06/25 11:11:22;;;;;;;5.20;4.60;;;;;;;;;;5022076;28;20267;-66
2023/06/25 11:13:50;;;;;;;5.45;4.95;;;;;;;;;;5038846;28;20862;-65
2023/06/25 11:16:19;;;;;;;5.22;4.72;;;;;;;;;;5041121;28;20321;-66
2023/06/25 11:18:50;;;;;;;4.68;4.28;;;;;;;;;;5041208;28;20222;-64
2023/06/25 11:21:18;;;;;;;6.40;4.43;;;;;;;;;;5045722;28;20664;-62
2023/06/25 11:23:45;;;;;;;4.95;4.40;;;;;;;;;;5041719;28;20252;-65
2023/06/25 11:26:17;;;;;;;4.60;4.20;;;;;;;;;;5043262;28;20214;-69
2023/06/25 11:28:48;;;;;;;5.78;4.25;;;;;;;;;;5034767;28;20684;-65
2023/06/25 11:31:16;;;;;;;4.75;4.18;;;;;;;;;;5038723;28;20222;-63
2023/06/25 11:33:54;;;;;;;5.30;4.30;;;;;;;;;;5040802;28;20222;-63
2023/06/25 11:36:28;;;;;;;4.25;3.85;;;;;;;;;;5038137;28;20224;-62
2023/06/25 11:38:58;;;;;;;5.20;4.70;;;;;;;;;;5038046;28;20225;-63
2023/06/25 11:41:29;;;;;;;4.22;3.92;;;;;;;;;;5039232;28;20195;-68
2023/06/25 11:43:56;;;;;;;4.40;4.00;;;;;;;;;;5039400;28;20230;-64
2023/06/25 11:46:23;;;;;;;4.88;4.47;;;;;;;;;;5040006;28;20214;-65
2023/06/25 11:48:51;;;;;;;4.07;3.78;;;;;;;;;;5042909;28;20607;-64
2023/06/25 11:51:18;;;;;;;4.50;4.10;;;;;;;;;;5036292;28;20213;-65
2023/06/25 11:53:45;;;;;;;4.28;3.97;;;;;;;;;;5040182;28;20267;-64
2023/06/25 11:56:13;;;;;;;4.40;4.03;;;;;;;;;;5037594;28;20256;-65
2023/06/25 11:58:40;;;;;;;4.75;4.35;;;;;;;;;;5035071;28;20258;-65
2023/06/25 12:01:10;;;;;;;4.47;4.18;;;;;;;;;;5034718;28;20207;-65
2023/06/25 12:03:38;;;;;;;5.13;4.63;;;;;;;;;;5043068;28;20225;-65
2023/06/25 12:06:06;;;;;;;4.70;4.30;;;;;;;;;;5033215;28;20245;-65
2023/06/25 12:08:34;;;;;;;4.63;4.22;;;;;;;;;;5043879;28;20229;-65
2023/06/25 12:11:01;;;;;;;5.13;4.45;;;;;;;;;;5042986;28;20390;-64
2023/06/25 12:13:29;;;;;;;4.65;4.25;;;;;;;;;;5037849;28;20226;-65
2023/06/25 12:15:56;;;;;;;4.43;4.03;;;;;;;;;;5039866;28;20210;-65
2023/06/25 12:18:23;;;;;;;4.43;4.00;;;;;;;;;;5038358;28;20783;-65
2023/06/25 12:20:51;;;;;;;4.90;4.50;;;;;;;;;;5030816;28;20198;-65
2023/06/25 12:23:18;;;;;;;4.80;4.40;;;;;;;;;;5037198;28;20707;-65
2023/06/25 12:25:46;;;;;;;5.03;4.63;;;;;;;;;;5033195;28;20267;-66
2023/06/25 12:28:13;;;;;;;4.13;3.83;;;;;;;;;;5032982;28;20660;-65
2023/06/25 12:30:40;;;;;;;4.93;4.53;;;;;;;;;;5033200;28;20225;-65
2023/06/25 12:33:07;;;;;;;5.05;4.57;;;;;;;;;;5031137;28;20226;-64
2023/06/25 12:35:35;;;;;;;5.38;4.78;;;;;;;;;;5036912;28;20202;-64
2023/06/25 12:38:03;;;;;;;5.00;4.53;;;;;;;;;;5037636;28;20206;-67
2023/06/25 12:40:30;;;;;;;4.78;4.35;;;;;;;;;;5040029;28;20206;-65
2023/06/25 12:42:59;;;;;;;4.88;4.47;;;;;;;;;;5032811;28;20227;-65
2023/06/25 12:45:26;;;;;;;4.22;3.92;;;;;;;;;;5031162;28;20202;-68
2023/06/25 12:47:54;;;;;;;5.03;4.45;;;;;;;;;;5038081;28;20229;-68
2023/06/25 12:50:21;;;;;;;6.18;5.57;;;;;;;;;;5038544;28;20210;-65
2023/06/25 12:52:48;;;;;;;4.60;4.28;;;;;;;;;;5029008;28;20230;-66
2023/06/25 12:55:16;;;;;;;4.78;4.43;;;;;;;;;;5045725;28;20571;-65
2023/06/25 12:57:43;;;;;;;5.15;4.32;;;;;;;;;;5049679;28;20672;-66
2023/06/25 13:00:10;;;;;;;4.85;4.45;;;;;;;;;;5043947;28;20287;-63
2023/06/25 13:02:50;;;;;;;4.88;4.32;;;;;;;;;;5038638;28;20786;-63
2023/06/25 13:05:20;;;;;;;5.35;4.40;;;;;;;;;;5040005;28;20547;-65
2023/06/25 13:07:47;;;;;;;4.70;4.30;;;;;;;;;;5026029;28;20606;-64
2023/06/25 13:10:15;;;;;;;5.03;4.60;;;;;;;;;;5021998;28;20310;-65
2023/06/25 13:12:42;;;;;;;5.20;4.05;;;;;;;;;;5040504;28;20642;-65
2023/06/25 13:15:10;;;;;;;4.97;4.57;;;;;;;;;;5034095;28;20175;-67
2023/06/25 13:17:38;;;;;;;4.35;4.05;;;;;;;;;;5034859;28;20206;-63
2023/06/25 13:20:06;;;;;;;5.25;4.75;;;;;;;;;;5025643;28;20236;-64
2023/06/25 13:22:33;;;;;;;;;;;;;;;;;;5022777;28;20592;-65
2023/06/25 13:25:00;;;;;;;;;;;;;;;;;;5029950;28;19974;-64
2023/06/25 13:27:28;;;;;;;;;;;;;;;;;;5031507;28;19925;-64
2023/06/25 13:29:55;;;;;;;4.97;4.47;;;;;;;;;;5030582;28;19932;-64
2023/06/25 13:32:22;;;;;;;5.30;4.80;;;;;;;;;;5033665;28;20205;-64
2023/06/25 13:34:50;;;;;;;5.50;5.05;;;;;;;;;;5036316;28;20322;-64
2023/06/25 13:37:17;;;;;;;9.60;8.10;;;;;;;;;;5033601;28;20206;-64
2023/06/25 13:39:45;;;;;;;26.77;17.73;;;;;;;;;;5045543;28;20221;-63
2023/06/25 13:42:12;;;;;;;5.13;4.70;;;;;;;;;;5042038;28;20194;-63
2023/06/25 13:44:40;;;;;;;14.63;9.95;;;;;;;;;;5031591;28;20735;-63
2023/06/25 13:47:07;;;;;;;5.28;4.88;;;;;;;;;;5032959;28;20653;-65
2023/06/25 13:49:35;;;;;;;6.80;6.10;;;;;;;;;;5030865;28;20202;-64
2023/06/25 13:52:02;;;;;;;5.57;5.07;;;;;;;;;;5037264;28;20217;-65
2023/06/25 13:54:29;;;;;;;5.30;4.90;;;;;;;;;;5030257;28;20253;-64
2023/06/25 13:56:57;;;;;;;5.55;5.05;;;;;;;;;;5036021;28;20213;-63
2023/06/25 13:59:24;;;;;;;5.55;5.15;;;;;;;;;;5032068;28;20765;-63
2023/06/25 14:01:51;;;;;;;5.10;4.70;;;;;;;;;;5035806;28;20202;-64
2023/06/25 14:04:18;;;;;;;5.53;5.03;;;;;;;;;;5030750;28;20226;-65
2023/06/25 14:06:46;;;;;;;5.28;4.88;;;;;;;;;;5023441;28;20210;-66
2023/06/25 14:09:13;;;;;;;4.95;4.50;;;;;;;;;;5036136;28;20553;-63
2023/06/25 14:11:41;;;;;;;9.27;7.00;;;;;;;;;;5037554;28;20206;-64
2023/06/25 14:14:08;;;;;;;9.07;4.70;;;;;;;;;;5031710;28;20748;-63
2023/06/25 14:16:35;;;;;;;5.57;5.07;;;;;;;;;;5036023;28;20206;-63
2023/06/25 14:19:03;;;;;;;5.55;4.97;;;;;;;;;;5044975;28;20229;-64
2023/06/25 14:21:30;;;;;;;5.32;4.82;;;;;;;;;;5042771;28;20587;-64
2023/06/25 14:23:58;;;;;;;5.32;4.82;;;;;;;;;;5037348;28;20229;-65
2023/06/25 14:26:25;;;;;;;5.60;5.10;;;;;;;;;;5036164;28;20210;-65
2023/06/25 14:28:52;;;;;;;5.25;4.85;;;;;;;;;;5034146;28;20632;-65
2023/06/25 14:31:37;;;;;;;5.28;4.88;;;;;;;;;;5029483;28;20208;-65
2023/06/25 14:34:05;;;;;;;5.53;5.03;;;;;;;;;;5034899;28;20743;-65
2023/06/25 14:36:34;;;;;;;5.90;5.30;;;;;;;;;;5029276;28;20202;-65
2023/06/25 14:39:02;;;;;;;5.00;4.60;;;;;;;;;;5023729;28;20311;-64
2023/06/25 14:41:34;;;;;;;6.68;6.00;;;;;;;;;;5030214;28;20222;-65
2023/06/25 14:44:01;;;;;;;6.90;4.97;;;;;;;;;;5028836;28;20238;-65
2023/06/25 14:46:28;;;;;;;5.60;5.20;;;;;;;;;;5030098;28;20265;-65
2023/06/25 14:48:56;;;;;;;5.18;4.68;;;;;;;;;;5031009;28;20202;-65